createdAt,value
2022-10-11T00:00:27.028Z,2.43
2022-10-11T00:02:30.152Z,2.60
2022-10-11T00:04:32.762Z,2.20
2022-10-11T00:06:37.731Z,2.10
2022-10-11T00:08:40.385Z,2.10
2022-10-11T00:10:44.776Z,6.00
2022-10-11T00:12:47.444Z,2.50
2022-10-11T00:14:50.227Z,2.20
2022-10-11T00:16:52.885Z,2.40
2022-10-11T00:18:55.904Z,2.30
2022-10-11T00:21:02.862Z,1.93
2022-10-11T00:23:05.480Z,2.03
2022-10-11T00:25:09.110Z,2.20
2022-10-11T00:27:13.475Z,2.63
2022-10-11T00:29:18.808Z,2.47
2022-10-11T00:31:21.600Z,4.00
2022-10-11T00:33:24.556Z,2.30
2022-10-11T00:35:28.250Z,2.20
2022-10-11T00:37:30.923Z,2.43
2022-10-11T00:39:33.576Z,2.20
2022-10-11T00:41:36.192Z,2.17
2022-10-11T00:43:40.506Z,2.00
2022-10-11T00:45:54.204Z,2.30
2022-10-11T00:47:57.334Z,2.07
2022-10-11T00:50:00.750Z,2.23
2022-10-11T00:52:05.619Z,2.30
2022-10-11T00:54:08.624Z,2.03
2022-10-11T00:56:14.145Z,2.10
2022-10-11T00:58:16.833Z,2.30
2022-10-11T01:00:21.185Z,2.37
2022-10-11T01:02:24.159Z,2.30
2022-10-11T01:04:26.826Z,2.10
2022-10-11T01:06:29.574Z,2.00
2022-10-11T01:08:32.666Z,1.70
2022-10-11T01:10:35.346Z,1.50
2022-10-11T01:12:37.950Z,1.87
2022-10-11T01:14:55.413Z,1.90
2022-10-11T01:17:01.849Z,1.67
2022-10-11T01:19:08.958Z,1.80
2022-10-11T01:21:14.603Z,1.73
2022-10-11T01:23:29.480Z,1.80
2022-10-11T01:25:33.711Z,2.30
2022-10-11T01:27:41.410Z,1.80
2022-10-11T01:29:48.451Z,1.97
2022-10-11T01:31:56.773Z,1.57
2022-10-11T01:34:01.081Z,1.70
2022-10-11T01:36:06.987Z,1.40
2022-10-11T01:38:14.085Z,1.73
2022-10-11T01:40:20.345Z,1.90
2022-10-11T01:42:23.226Z,1.80
2022-10-11T01:44:25.998Z,1.97
2022-10-11T01:46:28.929Z,1.97
2022-10-11T01:48:33.262Z,1.90
2022-10-11T01:50:41.933Z,2.03
2022-10-11T01:52:44.517Z,1.70
2022-10-11T01:57:31.061Z,1.63
2022-10-11T01:59:41.494Z,1.80
2022-10-11T02:01:50.823Z,2.00
2022-10-11T02:03:58.545Z,1.50
2022-10-11T02:06:05.278Z,2.63
2022-10-11T02:08:09.639Z,1.77
2022-10-11T02:10:16.226Z,1.53
2022-10-11T02:12:21.566Z,1.50
2022-10-11T02:14:25.427Z,1.77
2022-10-11T02:16:32.472Z,1.70
2022-10-11T02:18:37.614Z,1.50
2022-10-11T02:20:41.474Z,2.90
2022-10-11T02:22:45.039Z,1.90
2022-10-11T02:24:51.259Z,1.60
2022-10-11T02:26:54.632Z,2.00
2022-10-11T02:28:57.631Z,1.63
2022-10-11T02:31:00.524Z,2.13
2022-10-11T02:33:06.480Z,1.87
2022-10-11T02:35:09.637Z,1.63
2022-10-11T02:37:16.715Z,1.53
2022-10-11T02:39:21.510Z,1.73
2022-10-11T02:41:26.239Z,1.70
2022-10-11T02:43:31.283Z,1.50
2022-10-11T02:45:36.232Z,2.23
2022-10-11T02:47:38.808Z,1.40
2022-10-11T02:49:41.796Z,1.30
2022-10-11T02:51:44.370Z,2.13
2022-10-11T02:53:48.275Z,1.87
2022-10-11T02:55:51.075Z,3.63
2022-10-11T02:57:54.147Z,2.07
2022-10-11T02:59:56.868Z,1.40
2022-10-11T03:01:59.494Z,1.70
2022-10-11T03:04:02.093Z,1.73
2022-10-11T03:06:05.562Z,1.50
2022-10-11T03:08:08.689Z,1.53
2022-10-11T03:10:12.595Z,1.70
2022-10-11T03:12:15.179Z,2.63
2022-10-11T03:14:18.211Z,2.03
2022-10-11T03:16:20.782Z,2.53
2022-10-11T03:18:23.356Z,1.27
2022-10-11T03:20:26.003Z,1.63
2022-10-11T03:22:28.625Z,1.40
2022-10-11T03:24:31.231Z,1.00
2022-10-11T03:26:35.136Z,1.67
2022-10-11T03:28:37.804Z,1.50
2022-10-11T03:30:40.549Z,1.83
2022-10-11T03:32:43.357Z,1.30
2022-10-11T03:34:46.427Z,1.70
2022-10-11T03:36:49.053Z,1.90
2022-10-11T03:38:51.728Z,1.60
2022-10-11T03:40:58.006Z,1.70
2022-10-11T03:43:02.317Z,1.20
2022-10-11T03:45:07.974Z,1.50
2022-10-11T03:47:10.618Z,1.47
2022-10-11T03:49:13.212Z,2.00
2022-10-11T03:51:16.327Z,1.47
2022-10-11T03:53:18.910Z,2.80
2022-10-11T03:55:21.493Z,2.27
2022-10-11T03:57:24.128Z,1.33
2022-10-11T03:59:28.439Z,1.60
2022-10-11T04:01:36.186Z,1.97
2022-10-11T04:03:38.881Z,1.30
2022-10-11T04:05:41.459Z,2.13
2022-10-11T04:07:44.410Z,1.80
2022-10-11T04:09:47.080Z,2.00
2022-10-11T04:11:49.690Z,1.20
2022-10-11T04:13:52.264Z,2.20
2022-10-11T04:15:56.626Z,1.60
2022-10-11T04:17:59.240Z,1.23
2022-10-11T04:20:01.877Z,1.50
2022-10-11T04:22:04.615Z,1.43
2022-10-11T04:24:07.404Z,1.37
2022-10-11T04:26:10.039Z,2.10
2022-10-11T04:28:12.661Z,1.50
2022-10-11T04:30:15.404Z,1.97
2022-10-11T04:32:19.640Z,1.27
2022-10-11T04:34:22.215Z,1.20
2022-10-11T04:36:24.827Z,1.50
2022-10-11T04:38:27.467Z,2.10
2022-10-11T04:40:30.530Z,1.97
2022-10-11T04:42:33.105Z,1.53
2022-10-11T04:44:35.690Z,1.87
2022-10-11T04:46:38.322Z,1.27
2022-10-11T04:48:42.735Z,1.40
2022-10-11T04:50:45.777Z,1.23
2022-10-11T04:52:48.622Z,2.20
2022-10-11T04:54:51.197Z,1.50
2022-10-11T04:56:54.238Z,2.60
2022-10-11T04:58:56.857Z,1.50
2022-10-11T05:00:59.511Z,1.30
2022-10-11T05:03:02.163Z,1.80
2022-10-11T05:05:06.686Z,1.53
2022-10-11T05:07:09.303Z,1.50
2022-10-11T05:09:11.961Z,1.77
2022-10-11T05:11:16.140Z,1.30
2022-10-11T05:13:18.906Z,1.20
2022-10-11T05:15:21.536Z,1.30
2022-10-11T05:17:24.182Z,1.63
2022-10-11T05:19:27.168Z,1.23
2022-10-11T05:21:31.175Z,1.40
2022-10-11T05:23:34.390Z,2.07
2022-10-11T05:25:37.300Z,1.53
2022-10-11T05:27:41.337Z,1.47
2022-10-11T05:29:43.985Z,2.60
2022-10-11T05:31:46.554Z,1.37
2022-10-11T05:33:49.221Z,1.47
2022-10-11T05:35:52.251Z,1.40
2022-10-11T05:37:56.154Z,1.73
2022-10-11T05:39:58.822Z,3.10
2022-10-11T05:42:01.438Z,1.30
2022-10-11T05:44:04.420Z,1.50
2022-10-11T05:46:08.185Z,2.33
2022-10-11T05:48:11.181Z,1.70
2022-10-11T05:50:13.807Z,3.57
2022-10-11T05:52:19.764Z,1.83
2022-10-11T05:54:23.643Z,1.77
2022-10-11T05:56:26.568Z,2.07
2022-10-11T05:58:29.304Z,1.83
2022-10-11T06:00:32.406Z,1.43
2022-10-11T06:02:35.020Z,2.07
2022-10-11T06:04:37.889Z,2.10
2022-10-11T06:06:40.469Z,1.40
2022-10-11T06:08:43.075Z,1.23
2022-10-11T06:10:46.947Z,1.83
2022-10-11T06:12:49.586Z,3.10
2022-10-11T06:14:52.504Z,1.37
2022-10-11T06:16:55.116Z,2.60
2022-10-11T06:18:58.005Z,1.50
2022-10-11T06:21:00.630Z,1.90
2022-10-11T06:23:03.614Z,1.77
2022-10-11T06:25:06.927Z,1.53
2022-10-11T06:27:10.831Z,2.10
2022-10-11T06:29:13.437Z,2.40
2022-10-11T06:31:16.385Z,2.40
2022-10-11T06:33:19.026Z,2.13
2022-10-11T06:35:21.638Z,1.60
2022-10-11T06:37:24.313Z,1.77
2022-10-11T06:39:27.332Z,1.97
2022-10-11T06:41:30.770Z,1.80
2022-10-11T06:43:34.667Z,2.03
2022-10-11T06:45:37.266Z,1.70
2022-10-11T06:47:41.363Z,5.33
2022-10-11T06:49:43.972Z,2.30
2022-10-11T06:51:46.576Z,1.30
2022-10-11T06:53:50.337Z,1.60
2022-10-11T06:55:53.523Z,1.70
2022-10-11T06:57:56.123Z,1.80
2022-10-11T07:00:00.066Z,2.07
2022-10-11T07:02:02.629Z,2.00
2022-10-11T07:04:05.821Z,3.10
2022-10-11T07:06:10.070Z,1.43
2022-10-11T07:08:13.281Z,2.07
2022-10-11T07:10:16.040Z,1.67
2022-10-11T07:12:18.639Z,2.07
2022-10-11T07:14:21.232Z,2.13
2022-10-11T07:16:25.126Z,1.60
2022-10-11T07:18:28.302Z,1.77
2022-10-11T07:20:31.009Z,2.90
2022-10-11T07:22:33.636Z,1.30
2022-10-11T07:24:36.662Z,2.30
2022-10-11T07:26:39.553Z,1.40
2022-10-11T07:28:42.347Z,1.97
2022-10-11T07:30:45.066Z,2.63
2022-10-11T07:32:49.524Z,3.67
2022-10-11T07:34:52.469Z,1.20
2022-10-11T07:36:55.866Z,2.50
2022-10-11T07:38:58.468Z,2.23
2022-10-11T07:41:06.187Z,1.37
2022-10-11T07:43:08.842Z,2.73
2022-10-11T07:45:11.485Z,1.90
2022-10-11T07:47:14.098Z,1.90
2022-10-11T07:49:18.482Z,2.23
2022-10-11T07:51:22.089Z,1.67
2022-10-11T07:53:24.707Z,1.73
2022-10-11T07:55:29.991Z,1.80
2022-10-11T08:04:11.067Z,3.17
2022-10-11T08:06:17.898Z,1.57
2022-10-11T08:08:20.622Z,2.10
2022-10-11T08:10:23.878Z,1.80
2022-10-11T08:12:27.331Z,1.57
2022-10-11T08:14:30.309Z,2.20
2022-10-11T08:16:33.058Z,3.63
2022-10-11T08:18:35.967Z,2.97
2022-10-11T08:20:39.830Z,6.10
2022-10-11T08:22:43.945Z,2.00
2022-10-11T08:24:48.991Z,1.60
2022-10-11T08:26:51.808Z,2.20
2022-10-11T08:28:54.687Z,4.70
2022-10-11T08:30:57.616Z,3.83
2022-10-11T08:33:03.040Z,2.87
2022-10-11T08:35:09.556Z,3.10
2022-10-11T08:37:12.377Z,2.37
2022-10-11T08:39:16.794Z,1.47
2022-10-11T08:41:27.312Z,4.93
2022-10-11T08:43:36.645Z,2.33
2022-10-11T08:45:42.719Z,1.53
2022-10-11T08:47:45.670Z,1.97
2022-10-11T08:49:49.055Z,2.20
2022-10-11T08:51:54.323Z,2.23
2022-10-11T08:53:58.365Z,2.03
2022-10-11T08:56:03.115Z,3.07
2022-10-11T08:58:06.478Z,5.33
2022-10-11T09:00:12.317Z,2.00
2022-10-11T09:02:21.341Z,3.67
2022-10-11T09:04:24.093Z,1.93
2022-10-11T09:06:33.313Z,2.83
2022-10-11T09:08:44.179Z,2.03
2022-10-11T09:10:56.797Z,2.17
2022-10-11T09:13:05.655Z,2.67
2022-10-11T09:15:18.178Z,5.23
2022-10-11T09:17:27.345Z,6.63
2022-10-11T09:19:39.810Z,2.07
2022-10-11T09:21:44.266Z,1.77
2022-10-11T09:24:00.424Z,1.50
2022-10-11T09:26:06.025Z,5.63
2022-10-11T09:28:17.379Z,1.80
2022-10-11T09:30:20.518Z,1.70
2022-10-11T09:32:26.103Z,2.13
2022-10-11T09:34:32.398Z,4.20
2022-10-11T09:36:38.905Z,1.90
2022-10-11T09:38:43.170Z,1.70
2022-10-11T09:40:55.060Z,2.27
2022-10-11T09:42:59.420Z,2.20
2022-10-11T09:45:04.312Z,2.87
2022-10-11T09:47:09.712Z,1.80
2022-10-11T09:49:14.223Z,1.70
2022-10-11T09:51:19.358Z,2.23
2022-10-11T09:53:23.404Z,2.70
2022-10-11T09:55:31.926Z,3.30
2022-10-11T09:57:35.427Z,1.87
2022-10-11T09:59:38.247Z,2.93
2022-10-11T10:02:07.432Z,1.60
2022-10-11T10:04:10.972Z,2.10
2022-10-11T10:06:16.972Z,1.67
2022-10-11T10:08:24.243Z,1.40
2022-10-11T10:10:31.115Z,1.67
2022-10-11T10:12:33.887Z,4.00
2022-10-11T10:14:36.759Z,1.67
2022-10-11T10:16:39.536Z,2.90
2022-10-11T10:18:49.540Z,2.30
2022-10-11T10:20:53.178Z,1.93
2022-10-11T10:22:56.523Z,1.60
2022-10-11T10:24:59.826Z,1.63
2022-10-11T10:27:07.624Z,1.60
2022-10-11T10:29:18.629Z,2.30
2022-10-11T10:31:22.399Z,1.60
2022-10-11T10:33:26.119Z,1.50
2022-10-11T10:35:34.210Z,1.60
2022-10-11T10:37:39.478Z,1.40
2022-10-11T10:39:43.592Z,1.33
2022-10-11T10:41:46.382Z,2.03
2022-10-11T10:43:53.069Z,1.30
2022-10-11T10:46:13.555Z,1.70
2022-10-11T10:48:19.282Z,4.00
2022-10-11T10:50:24.594Z,2.33
2022-10-11T10:52:44.535Z,2.10
2022-10-11T10:54:50.323Z,1.70
2022-10-11T10:56:53.977Z,2.60
2022-10-11T10:59:03.362Z,2.57
2022-10-11T11:01:14.845Z,1.80
2022-10-11T11:03:23.594Z,2.60
2022-10-11T11:05:29.191Z,2.27
2022-10-11T11:07:35.571Z,1.77
2022-10-11T11:09:44.703Z,1.50
2022-10-11T11:11:54.472Z,2.90
2022-10-11T11:14:01.068Z,1.47
2022-10-11T11:16:11.766Z,1.50
2022-10-11T11:18:25.846Z,1.50
2022-10-11T11:20:40.241Z,1.73
2022-10-11T11:22:51.505Z,2.17
2022-10-11T11:24:58.765Z,2.90
2022-10-11T11:27:05.054Z,3.83
2022-10-11T11:29:13.027Z,2.13
2022-10-11T11:31:23.198Z,1.43
2022-10-11T11:33:34.368Z,1.70
2022-10-11T11:35:38.634Z,2.40
2022-10-11T11:37:42.693Z,2.23
2022-10-11T11:40:00.765Z,1.50
2022-10-11T11:42:06.592Z,3.43
2022-10-11T11:44:13.331Z,1.97
2022-10-11T11:46:17.344Z,1.73
2022-10-11T11:48:25.928Z,1.40
2022-10-11T11:50:30.465Z,1.30
2022-10-11T11:52:36.470Z,1.67
2022-10-11T11:54:46.434Z,1.77
2022-10-11T11:56:55.794Z,6.73
2022-10-11T11:59:03.229Z,2.10
2022-10-11T12:01:17.070Z,1.27
2022-10-11T12:03:22.157Z,3.67
2022-10-11T12:05:27.085Z,1.97
2022-10-11T12:07:30.095Z,1.40
2022-10-11T12:09:34.508Z,1.20
2022-10-11T12:11:42.594Z,7.30
2022-10-11T12:13:46.775Z,2.67
2022-10-11T12:15:59.219Z,1.90
2022-10-11T12:18:05.601Z,1.40
2022-10-11T12:20:14.502Z,1.63
2022-10-11T12:22:20.121Z,1.50
2022-10-11T12:24:25.722Z,1.87
2022-10-11T12:26:34.877Z,6.93
2022-10-11T12:29:04.806Z,1.00
2022-10-11T12:31:19.475Z,1.87
2022-10-11T12:33:23.874Z,3.40
2022-10-11T12:35:42.456Z,2.17
2022-10-11T12:37:50.958Z,1.70
2022-10-11T12:39:53.807Z,1.50
2022-10-11T12:42:07.272Z,1.90
2022-10-11T12:44:15.578Z,2.13
2022-10-11T12:46:38.424Z,1.67
2022-10-11T12:48:45.848Z,1.40
2022-10-11T12:50:53.787Z,1.37
2022-10-11T12:52:59.197Z,1.20
2022-10-11T12:55:08.917Z,1.93
2022-10-11T12:57:30.199Z,1.83
2022-10-11T12:59:32.962Z,6.20
2022-10-11T13:01:37.725Z,1.50
2022-10-11T13:03:41.800Z,4.37
2022-10-11T13:05:47.732Z,2.03
2022-10-11T13:07:52.913Z,3.00
2022-10-11T13:09:55.718Z,4.27
2022-10-11T13:12:02.889Z,2.63
2022-10-11T13:14:09.971Z,2.93
2022-10-11T13:16:14.855Z,1.80
2022-10-11T13:18:18.937Z,3.07
2022-10-11T13:20:24.835Z,2.60
2022-10-11T13:22:27.792Z,6.00
2022-10-11T13:24:36.862Z,4.90
2022-10-11T13:26:39.592Z,5.83
2022-10-11T13:28:43.800Z,3.20
2022-10-11T13:30:47.307Z,4.13
2022-10-11T13:32:50.044Z,3.40
2022-10-11T13:34:57.529Z,3.43
2022-10-11T13:37:03.063Z,3.90
2022-10-11T13:39:05.748Z,4.20
2022-10-11T13:41:10.103Z,4.93
2022-10-11T13:43:12.899Z,4.80
2022-10-11T13:45:16.613Z,4.20
2022-10-11T13:47:19.973Z,4.30
2022-10-11T13:49:27.321Z,4.37
2022-10-11T13:51:34.533Z,5.23
2022-10-11T13:53:37.383Z,5.57
2022-10-11T13:55:48.769Z,5.60
2022-10-11T13:57:52.273Z,5.00
2022-10-11T13:59:55.087Z,6.03
2022-10-11T14:01:59.245Z,5.07
2022-10-11T14:04:03.052Z,6.07
2022-10-11T14:06:06.249Z,4.80
2022-10-11T14:08:21.722Z,5.30
2022-10-11T14:10:24.705Z,5.80
2022-10-11T14:12:30.089Z,6.07
2022-10-11T14:14:41.701Z,5.37
2022-10-11T14:16:48.952Z,5.60
2022-10-11T14:18:52.005Z,5.93
2022-10-11T14:20:55.157Z,5.87
2022-10-11T14:22:58.445Z,5.97
2022-10-11T14:25:02.561Z,5.73
2022-10-11T14:27:05.685Z,8.13
2022-10-11T14:29:09.798Z,6.80
2022-10-11T14:31:12.637Z,6.30
2022-10-11T14:33:15.559Z,6.33
2022-10-11T14:35:18.539Z,7.90
2022-10-11T14:37:21.799Z,7.97
2022-10-11T14:39:25.457Z,8.03
2022-10-11T14:41:29.626Z,8.47
2022-10-11T14:43:32.441Z,7.77
2022-10-11T14:45:37.258Z,7.27
2022-10-11T14:47:42.995Z,9.37
2022-10-11T14:49:46.205Z,7.47
2022-10-11T14:51:50.102Z,8.40
2022-10-11T14:53:54.189Z,10.30
2022-10-11T14:55:56.919Z,7.50
2022-10-11T14:58:01.376Z,9.63
2022-10-11T15:00:04.291Z,9.23
2022-10-11T15:02:09.810Z,7.00
2022-10-11T15:04:12.763Z,15.87
2022-10-11T15:06:19.353Z,10.20
2022-10-11T15:08:22.008Z,11.17
2022-10-11T15:10:26.330Z,12.70
2022-10-11T15:12:28.957Z,13.03
2022-10-11T15:14:33.001Z,9.50
2022-10-11T15:16:36.591Z,8.37
2022-10-11T15:18:39.381Z,10.07
2022-10-11T15:20:42.986Z,8.53
2022-10-11T15:22:45.702Z,12.73
2022-10-11T15:24:51.637Z,10.03
2022-10-11T15:26:54.678Z,8.30
2022-10-11T15:28:57.814Z,19.43
2022-10-11T15:31:02.076Z,13.80
2022-10-11T15:33:06.250Z,18.77
2022-10-11T15:35:10.431Z,8.80
2022-10-11T15:37:13.240Z,9.40
2022-10-11T15:39:24.092Z,9.07
2022-10-11T15:41:26.993Z,15.73
2022-10-11T15:43:30.213Z,12.60
2022-10-11T15:45:33.355Z,10.80
2022-10-11T15:47:37.845Z,10.83
2022-10-11T15:49:40.623Z,12.10
2022-10-11T15:51:43.374Z,8.37
2022-10-11T15:53:46.278Z,8.67
2022-10-11T15:55:50.865Z,10.13
2022-10-11T15:57:53.688Z,9.30
2022-10-11T15:59:56.620Z,10.13
2022-10-11T16:01:59.587Z,7.87
2022-10-11T16:04:03.733Z,10.67
2022-10-11T16:06:07.286Z,8.43
2022-10-11T16:08:10.466Z,9.80
2022-10-11T16:10:13.702Z,7.73
2022-10-11T16:12:18.942Z,8.43
2022-10-11T16:14:21.589Z,8.87
2022-10-11T16:16:24.297Z,9.37
2022-10-11T16:18:30.126Z,10.10
2022-10-11T16:20:39.739Z,8.90
2022-10-11T16:22:42.506Z,8.23
2022-10-11T16:24:45.046Z,9.53
2022-10-11T16:26:48.157Z,8.30
2022-10-11T16:28:51.060Z,9.67
2022-10-11T16:30:53.804Z,10.13
2022-10-11T16:32:56.616Z,7.63
2022-10-11T16:34:59.494Z,9.70
2022-10-11T16:37:03.603Z,10.40
2022-10-11T16:39:08.566Z,8.93
2022-10-11T16:41:11.858Z,10.10
2022-10-11T16:43:14.629Z,10.17
2022-10-11T16:45:17.746Z,9.03
2022-10-11T16:47:20.435Z,9.20
2022-10-11T16:49:24.937Z,9.87
2022-10-11T16:51:27.845Z,18.50
2022-10-11T16:53:33.908Z,9.20
2022-10-11T16:55:36.675Z,10.53
2022-10-11T16:57:40.863Z,8.57
2022-10-11T16:59:43.726Z,10.70
2022-10-11T17:01:46.447Z,8.87
2022-10-11T17:03:49.883Z,7.67
2022-10-11T17:05:52.722Z,8.93
2022-10-11T17:07:55.410Z,9.23
2022-10-11T17:10:01.036Z,8.43
2022-10-11T17:12:05.174Z,9.17
2022-10-11T17:14:08.014Z,11.57
2022-10-11T17:16:10.758Z,9.50
2022-10-11T17:18:13.747Z,8.57
2022-10-11T17:20:16.911Z,10.80
2022-10-11T17:22:20.376Z,9.33
2022-10-11T17:24:23.309Z,9.00
2022-10-11T17:26:27.917Z,12.20
2022-10-11T17:28:32.262Z,8.60
2022-10-11T17:30:35.092Z,10.00
2022-10-11T17:32:38.597Z,9.57
2022-10-11T17:34:44.775Z,10.83
2022-10-11T17:36:47.549Z,9.10
2022-10-11T17:38:50.722Z,8.87
2022-10-11T17:40:59.850Z,11.47
2022-10-11T17:43:04.102Z,10.37
2022-10-11T17:45:07.630Z,8.87
2022-10-11T17:47:12.095Z,7.50
2022-10-11T17:49:15.198Z,11.97
2022-10-11T17:51:19.212Z,12.03
2022-10-11T17:53:25.238Z,7.90
2022-10-11T17:55:34.374Z,8.90
2022-10-11T17:57:37.161Z,9.80
2022-10-11T17:59:41.370Z,11.67
2022-10-11T18:01:44.371Z,9.03
2022-10-11T18:03:52.050Z,8.43
2022-10-11T18:05:56.125Z,10.63
2022-10-11T18:08:01.155Z,8.90
2022-10-11T18:10:04.237Z,9.50
2022-10-11T18:12:08.618Z,9.90
2022-10-11T18:14:11.438Z,10.77
2022-10-11T18:16:19.169Z,11.67
2022-10-11T18:18:27.504Z,10.23
2022-10-11T18:20:30.985Z,12.00
2022-10-11T18:22:34.575Z,11.47
2022-10-11T18:24:44.061Z,10.13
2022-10-11T18:26:53.335Z,11.30
2022-10-11T18:28:56.556Z,11.77
2022-10-11T18:31:13.486Z,13.43
2022-10-11T18:33:32.506Z,12.37
2022-10-11T18:35:44.206Z,13.87
2022-10-11T18:37:48.462Z,13.70
2022-10-11T18:39:51.479Z,13.50
2022-10-11T18:41:54.421Z,13.47
2022-10-11T18:43:57.869Z,15.83
2022-10-11T18:46:07.885Z,13.93
2022-10-11T18:48:10.648Z,14.27
2022-10-11T18:50:14.799Z,16.83
2022-10-11T18:52:19.707Z,14.37
2022-10-11T18:54:25.475Z,16.27
2022-10-11T18:56:28.855Z,16.13
2022-10-11T18:58:32.076Z,14.87
2022-10-11T19:00:42.660Z,15.50
2022-10-11T19:02:45.908Z,14.63
2022-10-11T19:04:52.443Z,17.70
2022-10-11T19:07:02.316Z,18.90
2022-10-11T19:09:10.859Z,17.90
2022-10-11T19:11:15.997Z,16.20
2022-10-11T19:13:27.633Z,16.43
2022-10-11T19:15:30.836Z,22.60
2022-10-11T19:17:35.385Z,18.53
2022-10-11T19:19:39.454Z,18.37
2022-10-11T19:21:48.847Z,19.97
2022-10-11T19:23:54.008Z,19.47
2022-10-11T19:26:03.788Z,19.47
2022-10-11T19:28:15.621Z,19.67
2022-10-11T19:30:21.775Z,19.57
2022-10-11T19:32:25.790Z,18.83
2022-10-11T19:34:31.593Z,19.00
2022-10-11T19:36:37.981Z,20.13
2022-10-11T19:38:41.086Z,19.53
2022-10-11T19:40:45.303Z,22.03
2022-10-11T19:42:48.779Z,23.80
2022-10-11T19:44:55.110Z,23.33
2022-10-11T19:47:02.804Z,24.17
2022-10-11T19:49:08.781Z,20.27
2022-10-11T19:51:19.099Z,19.70
2022-10-11T19:53:22.175Z,20.07
2022-10-11T19:55:24.943Z,22.73
2022-10-11T19:57:29.404Z,22.50
2022-10-11T19:59:33.182Z,23.07
2022-10-11T20:01:36.762Z,24.80
2022-10-11T20:03:40.170Z,21.60
2022-10-11T20:05:43.187Z,20.67
2022-10-11T20:07:48.037Z,23.00
2022-10-11T20:09:53.412Z,21.57
2022-10-11T20:11:56.890Z,22.83
2022-10-11T20:14:01.037Z,22.50
2022-10-11T20:16:07.623Z,20.30
2022-10-11T20:18:15.059Z,22.60
2022-10-11T20:20:20.424Z,27.10
2022-10-11T20:22:25.400Z,21.00
2022-10-11T20:24:32.672Z,20.90
2022-10-11T20:26:37.611Z,22.87
2022-10-11T20:28:41.275Z,22.57
2022-10-11T20:30:46.035Z,21.60
2022-10-11T20:32:49.099Z,21.77
2022-10-11T20:34:52.743Z,24.27
2022-10-11T20:36:56.023Z,24.57
2022-10-11T20:39:00.215Z,28.80
2022-10-11T20:41:06.478Z,23.37
2022-10-11T20:43:10.099Z,26.50
2022-10-11T20:45:13.409Z,24.50
2022-10-11T20:47:17.950Z,22.60
2022-10-11T20:49:22.605Z,23.40
2022-10-11T20:51:26.168Z,26.30
2022-10-11T20:53:29.442Z,22.77
2022-10-11T20:55:32.701Z,26.80
2022-10-11T20:57:36.072Z,26.00
2022-10-11T20:59:39.610Z,27.40
2022-10-11T21:01:42.763Z,26.07
2022-10-11T21:03:47.015Z,25.07
2022-10-11T21:05:50.134Z,26.13
2022-10-11T21:07:53.216Z,28.23
2022-10-11T21:09:55.998Z,26.60
2022-10-11T21:11:58.801Z,27.23
2022-10-11T21:14:02.275Z,26.07
2022-10-11T21:16:06.772Z,28.60
2022-10-11T21:18:09.606Z,26.13
2022-10-11T21:20:13.711Z,30.40
2022-10-11T21:22:16.795Z,30.27
2022-10-11T21:24:19.932Z,29.13
2022-10-11T21:26:22.727Z,34.70
2022-10-11T21:28:25.540Z,28.60
2022-10-11T21:30:28.305Z,28.67
2022-10-11T21:32:31.110Z,32.87
2022-10-11T21:34:33.932Z,32.20
2022-10-11T21:36:37.943Z,31.97
2022-10-11T21:38:41.024Z,33.60
2022-10-11T21:40:43.697Z,34.63
2022-10-11T21:42:46.440Z,34.53
2022-10-11T21:44:49.197Z,33.20
2022-10-11T21:47:06.720Z,33.10
2022-10-11T21:49:10.411Z,30.87
2022-10-11T21:53:18.565Z,36.60
2022-10-11T21:55:21.638Z,33.40
2022-10-11T21:57:24.385Z,32.30
2022-10-11T21:59:27.116Z,32.83
2022-10-11T22:01:29.884Z,35.50
2022-10-11T22:03:32.710Z,38.40
2022-10-11T22:05:35.392Z,36.60
2022-10-11T22:07:38.175Z,37.23
2022-10-11T22:09:42.196Z,32.87
2022-10-11T22:11:45.197Z,37.50
2022-10-11T22:13:48.121Z,36.13
2022-10-11T22:15:50.843Z,35.70
2022-10-11T22:17:53.619Z,37.00
2022-10-11T22:19:56.664Z,35.13
2022-10-11T22:21:59.383Z,35.13
2022-10-11T22:24:02.201Z,35.60
2022-10-11T22:26:06.683Z,36.07
2022-10-11T22:28:09.701Z,37.33
2022-10-11T22:30:12.685Z,36.57
2022-10-11T22:32:15.358Z,35.00
2022-10-11T22:34:18.110Z,36.80
2022-10-11T22:36:20.843Z,36.57
2022-10-11T22:38:23.564Z,36.63
2022-10-11T22:40:26.237Z,36.27
2022-10-11T22:42:31.368Z,36.17
2022-10-11T22:44:34.127Z,36.90
2022-10-11T22:46:36.918Z,34.80
2022-10-11T22:48:39.694Z,36.20
2022-10-11T22:50:42.507Z,36.77
2022-10-11T22:52:45.339Z,36.27
2022-10-11T22:54:48.062Z,35.70
2022-10-11T22:56:50.736Z,38.93
2022-10-11T22:58:54.744Z,34.90
2022-10-11T23:00:57.417Z,32.47
2022-10-11T23:03:00.570Z,37.03
2022-10-11T23:05:03.375Z,36.13
2022-10-11T23:07:06.066Z,36.80
2022-10-11T23:09:08.910Z,35.17
2022-10-11T23:11:13.399Z,34.73
2022-10-11T23:13:16.076Z,35.10
2022-10-11T23:15:23.084Z,34.40
2022-10-11T23:17:25.823Z,33.77
2022-10-11T23:19:28.949Z,34.83
2022-10-11T23:21:31.712Z,36.07
2022-10-11T23:23:34.464Z,34.43
2022-10-11T23:25:37.144Z,34.67
2022-10-11T23:27:40.403Z,35.00
2022-10-11T23:29:43.294Z,34.47
2022-10-11T23:31:47.351Z,32.77
2022-10-11T23:33:50.096Z,32.40
2022-10-11T23:35:52.771Z,33.40
2022-10-11T23:37:55.489Z,33.60
2022-10-11T23:39:58.231Z,33.83
2022-10-11T23:42:01.436Z,34.83
2022-10-11T23:44:04.165Z,35.63
2022-10-11T23:46:06.942Z,34.77
2022-10-11T23:48:10.996Z,33.47
2022-10-11T23:50:15.169Z,31.60
2022-10-11T23:52:17.866Z,34.93
2022-10-11T23:54:20.621Z,31.63
2022-10-11T23:56:23.442Z,31.43
2022-10-11T23:58:26.490Z,31.37
